Jump to content

TAF Issues


Recommended Posts

Hello all,

 

today I experienced problems with TAF (not showing for any airport). Yet my weather is updated. Is this isolated incident or is there more of us?

 

image.png.2e400b0ef3748b59b7861257fe72443b.png

 

See sample:

 

image.png.52341fb9558bc038033084ace0320440.png

 

image.png.d78a23a634b24570c4fe08640e96b234.png

 

image.png.384514ef53918094871b1e0518061ae3.png

 

image.png.a6834318ae9f5a2cbbc547212447d43c.png

 

 

Link to comment
Share on other sites

Hi,

Apparently it works:

 

LKPR 210730Z 23009KT 8000 SCT009 OVC016 03/02 Q1011 NOSIG
LKPR 210500Z 2106/2212 23010KT 9999 BKN018
  TEMPO 2106/2108 BKN012
  PROB30 TEMPO 2106/2108 4000 BR BKN007
  TEMPO 2108/2115 SCT030
  TEMPO 2200/2202 -RA BKN012
  BECMG 2202/2204 36010KT 4000 RA BR BKN007
  TEMPO 2204/2212 2000 RA BR BKN004
  PROB30 TEMPO 2204/2212 1200 RA BR BKN002

 

JP

Link to comment
Share on other sites

Create an account or sign in to comment

You need to be a member in order to leave a comment

Create an account

Sign up for a new account in our community. It's easy!

Register a new account

Sign in

Already have an account? Sign in here.

Sign In Now
 Share

×
×
  • Create New...